Assumption, Illinois
Current Conditions -  °F | °C
As of 5:15 AM on Sunday 21 Dec 2014 (Local Time) from KTAZ Reporting Station
Overcast Overcast  
Wind Chill: 27°   Ceiling: 3200
Heat Index: 34°   Visibility: 10mi
Dew Point: 32°   Wind: 8mph
Humidity: 93%   Direction: 160°SSE
Pressure: 30.22"   Gusts: NA
Location:  39.52°N, 89.05°W
Report Text: KTAZ 211115Z AUTO 16007KT 10SM OVC032 01/00 A3022 RMK AO2
Loading
Personal Weather Stations






























Interactive Weather Map New forecast layout! Learn more

10-Day Weather Forecast

Advertisements
Track Severe Weather on mobile